Free Practice

POSIT NUM DRIVER NAT BOAT LAPS BEST LAP AT SPEED Km/h
1 37 Héctor Sanz SPA BaBa 62 00:44:60 56 137,2
2 35 Rashed Al Qemzi UAE DAC 61 00:44:75 61 136,8
3 45 Duarte Benavente POR Moore 63 00:44:75 56 136,8
4 1 Pierre Lundin SWE Moore 51 00:44:78 44 136,7
5 8 Nelson Morin FRA Moore 51 00:44:82 42 136,5
6 21 Erik Edin SWE Molgaard 40 00:45:47 36 134,6
7 77 Tobias Munthe-Kaas NOR BaBa 45 00:45:72 42 133,9
8 3 Owen Jelf GBR BaBa 54 00:45:87 51 133,4
9 54 Daniel Segenmark SWE DAC 57 00:46:50 53 131,6
10 7 Alberto Comparato ITA DAC 30 00:47:06 26 130,0
11 2 Johan Österberg SWE Molgaard 42 00:47:32 34 129,3
12 9 Mette Bjerknæs NOR Moore 29 00:47:42 22 129,1
13 6 Ola Pettersson SWE Molgaard 23 00:47:47 22 128,9
14 33 Fabrice Boulier FRA Moore 40 00:47:50 40 128,8
15 41 Edgaras Riabko LT DAC 29 00:47:52 17 128,8
16 10 Oskar Samuelsson SWE Molgaard 14 00:47:59 3 128,6
17 11 Bimba Sjöholm SWE Molgaard 36 00:47:72 16 128,2
18 88 Paolo Longhi ITA  DAC 49 00:48:15 48 127,1
19 17 Ferdinand Zandbergen NL BaBa 16 00:48:36 14 126,6
20 36 Mohamed Al Mehairbi UAE DAC 60 00:48:72 53 125,6
21 51 Uvis Slakteris LAT Molgaard 32 00:48:78 18 125,5
22 82 Béla Cserni HUN ASV 8 00:48:85 4 125,3